createdAt,value
2022-10-01T00:02:26.080Z,10.80
2022-10-01T00:07:25.726Z,10.70
2022-10-01T00:12:23.987Z,10.70
2022-10-01T00:17:22.072Z,10.60
2022-10-01T00:22:20.170Z,10.60
2022-10-01T00:27:21.854Z,10.60
2022-10-01T00:32:20.048Z,10.50
2022-10-01T00:37:18.728Z,10.50
2022-10-01T00:42:23.220Z,10.50
2022-10-01T00:47:28.296Z,10.50
2022-10-01T00:52:29.204Z,10.50
2022-10-01T00:57:29.508Z,10.50
2022-10-01T01:02:27.637Z,10.50
2022-10-01T01:07:27.034Z,10.50
2022-10-01T01:12:41.357Z,10.50
2022-10-01T01:17:47.275Z,10.50
2022-10-01T01:22:53.941Z,10.50
2022-10-01T01:28:04.772Z,10.50
2022-10-01T01:33:07.277Z,10.50
2022-10-01T01:38:11.273Z,10.40
2022-10-01T01:43:14.029Z,10.40
2022-10-01T01:48:13.243Z,10.40
2022-10-01T01:53:12.029Z,10.40
2022-10-01T01:58:12.800Z,10.40
2022-10-01T02:03:12.581Z,10.50
2022-10-01T02:08:26.473Z,10.50
2022-10-01T02:13:38.939Z,10.40
2022-10-01T02:18:45.485Z,10.40
2022-10-01T02:23:49.837Z,10.30
2022-10-01T02:28:52.283Z,10.30
2022-10-01T02:33:53.219Z,10.20
2022-10-01T02:38:53.092Z,10.20
2022-10-01T02:43:57.665Z,10.20
2022-10-01T02:48:56.372Z,10.20
2022-10-01T02:54:00.143Z,10.10
2022-10-01T02:59:00.560Z,10.10
2022-10-01T03:03:58.503Z,10.10
2022-10-01T03:08:57.359Z,10.10
2022-10-01T03:13:55.562Z,10.10
2022-10-01T03:18:55.026Z,10.10
2022-10-01T03:23:53.011Z,10.00
2022-10-01T03:28:51.032Z,10.00
2022-10-01T03:33:49.282Z,9.90
2022-10-01T03:38:48.572Z,10.00
2022-10-01T03:43:46.678Z,10.00
2022-10-01T03:48:44.676Z,10.00
2022-10-01T03:53:42.822Z,10.00
2022-10-01T03:58:42.241Z,10.00
2022-10-01T04:03:40.299Z,9.90
2022-10-01T04:08:38.797Z,9.90
2022-10-01T04:13:37.127Z,9.70
2022-10-01T04:18:38.788Z,9.60
2022-10-01T04:23:36.826Z,9.70
2022-10-01T04:28:35.115Z,9.70
2022-10-01T04:33:33.148Z,9.70
2022-10-01T04:38:33.168Z,9.90
2022-10-01T04:43:31.267Z,9.90
2022-10-01T04:48:29.357Z,9.80
2022-10-01T04:53:27.417Z,9.70
2022-10-01T04:58:27.072Z,9.70
2022-10-01T05:03:25.117Z,9.70
2022-10-01T05:08:23.167Z,9.80
2022-10-01T05:13:21.405Z,9.80
2022-10-01T05:18:20.749Z,9.80
2022-10-01T05:23:18.752Z,9.90
2022-10-01T05:28:21.939Z,9.70
2022-10-01T05:33:22.045Z,9.70
2022-10-01T05:38:20.169Z,9.70
2022-10-01T05:43:18.592Z,9.80
2022-10-01T05:48:16.735Z,9.80
2022-10-01T05:53:16.459Z,9.90
2022-10-01T05:58:15.565Z,10.10
2022-10-01T06:03:15.148Z,10.20
2022-10-01T06:08:13.835Z,10.20
2022-10-01T06:13:17.855Z,10.30
2022-10-01T06:18:15.922Z,10.40
2022-10-01T06:23:15.034Z,10.50
2022-10-01T06:28:15.579Z,10.70
2022-10-01T06:33:15.729Z,10.80
2022-10-01T06:38:14.212Z,10.80
2022-10-01T06:43:12.361Z,10.80
2022-10-01T06:48:14.929Z,10.90
2022-10-01T06:53:13.271Z,11.00
2022-10-01T06:58:15.065Z,11.00
2022-10-01T07:03:16.948Z,11.00
2022-10-01T07:08:18.376Z,11.10
2022-10-01T07:13:18.593Z,11.10
2022-10-01T07:18:18.225Z,11.10
2022-10-01T07:23:17.259Z,11.20
2022-10-01T07:28:19.873Z,11.30
2022-10-01T07:33:20.849Z,11.30
2022-10-01T07:38:18.969Z,11.40
2022-10-01T07:43:17.292Z,11.50
2022-10-01T07:48:15.979Z,11.70
2022-10-01T07:53:15.497Z,11.90
2022-10-01T07:58:14.161Z,12.00
2022-10-01T08:03:12.678Z,12.10
2022-10-01T08:08:11.128Z,12.30
2022-10-01T08:13:15.364Z,12.40
2022-10-01T08:18:13.589Z,12.50
2022-10-01T08:23:14.195Z,12.50
2022-10-01T08:28:13.670Z,12.70
2022-10-01T08:33:13.521Z,12.60
2022-10-01T08:38:12.781Z,12.70
2022-10-01T08:43:29.598Z,12.80
2022-10-01T08:48:37.641Z,12.90
2022-10-01T08:53:40.675Z,12.90
2022-10-01T08:58:45.962Z,13.20
2022-10-01T09:03:44.084Z,13.40
2022-10-01T09:08:53.976Z,13.50
2022-10-01T09:14:14.806Z,13.50
2022-10-01T09:19:27.894Z,13.60
2022-10-01T09:24:40.603Z,13.80
2022-10-01T09:29:44.127Z,14.40
2022-10-01T09:34:45.092Z,14.80
2022-10-01T09:39:47.616Z,14.50
2022-10-01T09:44:47.759Z,14.30
2022-10-01T09:49:50.220Z,14.10
2022-10-01T09:54:53.118Z,14.00
2022-10-01T10:00:02.661Z,13.80
2022-10-01T10:05:02.649Z,13.70
2022-10-01T10:10:10.737Z,13.50
2022-10-01T10:15:16.569Z,13.40
2022-10-01T10:20:25.695Z,13.20
2022-10-01T10:25:25.773Z,13.20
2022-10-01T10:30:26.453Z,13.00
2022-10-01T10:35:26.870Z,12.90
2022-10-01T10:40:29.577Z,12.80
2022-10-01T10:45:34.361Z,12.70
2022-10-01T10:50:43.150Z,12.60
2022-10-01T10:55:41.261Z,12.60
2022-10-01T11:00:50.005Z,12.70
2022-10-01T11:05:51.521Z,12.60
2022-10-01T11:11:02.188Z,12.50
2022-10-01T11:16:19.533Z,12.60
2022-10-01T11:21:40.347Z,12.60
2022-10-01T11:26:46.314Z,12.60
2022-10-01T11:31:52.808Z,12.70
2022-10-01T11:36:55.932Z,12.70
2022-10-01T11:41:57.143Z,12.70
2022-10-01T11:47:02.887Z,12.60
2022-10-01T11:52:09.442Z,12.60
2022-10-01T11:57:32.928Z,12.60
2022-10-01T12:02:36.873Z,12.50
2022-10-01T12:07:43.141Z,12.50
2022-10-01T12:12:47.549Z,12.50
2022-10-01T12:17:53.038Z,12.40
2022-10-01T12:22:52.018Z,12.40
2022-10-01T12:28:00.517Z,12.30
2022-10-01T12:33:15.880Z,12.30
2022-10-01T12:38:25.904Z,12.30
2022-10-01T12:43:52.583Z,12.40
2022-10-01T12:49:01.488Z,12.40
2022-10-01T12:54:08.592Z,12.30
2022-10-01T12:59:33.679Z,12.30
2022-10-01T13:04:51.951Z,12.20
2022-10-01T13:09:58.284Z,12.20
2022-10-01T13:14:57.160Z,12.30
2022-10-01T13:20:02.394Z,12.40
2022-10-01T13:25:07.645Z,12.50
2022-10-01T13:30:14.799Z,12.50
2022-10-01T13:35:33.005Z,12.60
2022-10-01T13:40:35.757Z,12.70
2022-10-01T13:45:44.190Z,12.80
2022-10-01T13:50:56.577Z,12.90
2022-10-01T13:55:56.830Z,13.00
2022-10-01T14:00:56.684Z,13.10
2022-10-01T14:05:58.592Z,13.30
2022-10-01T14:11:19.677Z,13.30
2022-10-01T14:16:19.746Z,13.30
2022-10-01T14:21:36.796Z,13.20
2022-10-01T14:26:42.788Z,13.30
2022-10-01T14:31:51.523Z,13.40
2022-10-01T14:36:52.635Z,13.40
2022-10-01T14:41:53.947Z,13.40
2022-10-01T14:46:52.385Z,13.50
2022-10-01T14:51:54.723Z,13.50
2022-10-01T14:56:53.481Z,13.60
2022-10-01T15:02:03.328Z,13.60
2022-10-01T15:07:14.352Z,13.70
2022-10-01T15:12:13.929Z,13.80
2022-10-01T15:17:19.935Z,13.80
2022-10-01T15:22:22.938Z,13.80
2022-10-01T15:27:21.920Z,13.80
2022-10-01T15:32:23.110Z,13.80
2022-10-01T15:37:26.618Z,13.80
2022-10-01T15:42:28.098Z,13.80
2022-10-01T15:47:27.709Z,14.00
2022-10-01T15:52:41.060Z,14.10
2022-10-01T15:57:39.705Z,14.90
2022-10-01T16:02:37.691Z,15.30
2022-10-01T16:07:37.862Z,15.70
2022-10-01T16:12:36.532Z,16.70
2022-10-01T16:17:37.822Z,16.80
2022-10-01T16:22:39.712Z,16.00
2022-10-01T16:27:47.265Z,15.30
2022-10-01T16:32:45.476Z,14.80
2022-10-01T16:37:46.053Z,14.50
2022-10-01T16:42:45.052Z,14.40
2022-10-01T16:47:43.227Z,14.20
2022-10-01T16:52:41.175Z,14.10
2022-10-01T16:57:41.723Z,14.00
2022-10-01T17:02:39.629Z,13.90
2022-10-01T17:07:37.565Z,13.90
2022-10-01T17:12:35.438Z,13.80
2022-10-01T17:17:35.392Z,13.80
2022-10-01T17:22:33.305Z,13.70
2022-10-01T17:27:31.239Z,13.70
2022-10-01T17:32:29.486Z,13.70
2022-10-01T17:37:28.794Z,13.70
2022-10-01T17:42:26.779Z,13.70
2022-10-01T17:47:24.962Z,13.60
2022-10-01T17:52:23.065Z,13.60
2022-10-01T17:57:22.442Z,13.60
2022-10-01T18:02:40.325Z,13.60
2022-10-01T18:07:38.282Z,13.60
2022-10-01T18:12:37.624Z,13.60
2022-10-01T18:17:36.704Z,13.60
2022-10-01T18:22:35.327Z,13.60
2022-10-01T18:27:33.371Z,13.60
2022-10-01T18:32:40.333Z,13.50
2022-10-01T18:37:46.509Z,13.60
2022-10-01T18:42:47.999Z,13.60
2022-10-01T18:47:58.049Z,13.70
2022-10-01T18:53:19.823Z,13.70
2022-10-01T18:58:41.090Z,13.60
2022-10-01T19:04:15.303Z,13.50
2022-10-01T19:09:36.203Z,13.40
2022-10-01T19:14:47.447Z,13.40
2022-10-01T19:19:57.365Z,13.50
2022-10-01T19:25:08.579Z,13.50
2022-10-01T19:30:10.497Z,13.50
2022-10-01T19:35:19.046Z,13.40
2022-10-01T19:40:27.341Z,13.30
2022-10-01T19:45:30.095Z,13.20
2022-10-01T19:50:34.013Z,13.20
2022-10-01T19:55:38.746Z,13.20
2022-10-01T20:00:38.487Z,13.10
2022-10-01T20:05:45.136Z,13.10
2022-10-01T20:10:48.574Z,13.00
2022-10-01T20:15:55.301Z,12.90
2022-10-01T20:21:09.038Z,12.90
2022-10-01T20:26:16.652Z,12.90
2022-10-01T20:31:18.468Z,12.90
2022-10-01T20:36:22.855Z,12.80
2022-10-01T20:41:24.131Z,12.70
2022-10-01T20:46:32.220Z,12.70
2022-10-01T20:51:40.616Z,12.70
2022-10-01T20:56:42.764Z,12.60
2022-10-01T21:01:47.264Z,12.40
2022-10-01T21:06:49.077Z,12.40
2022-10-01T21:11:53.314Z,12.30
2022-10-01T21:17:05.710Z,12.40
2022-10-01T21:22:17.065Z,12.40
2022-10-01T21:27:35.573Z,12.30
2022-10-01T21:33:02.758Z,12.20
2022-10-01T21:38:10.600Z,12.20
2022-10-01T21:43:23.438Z,12.10
2022-10-01T21:48:32.564Z,12.10
2022-10-01T21:53:55.673Z,12.10
2022-10-01T21:59:06.405Z,12.10
2022-10-01T22:04:11.822Z,12.10
2022-10-01T22:09:17.859Z,12.10
2022-10-01T22:14:17.496Z,12.20
2022-10-01T22:19:19.197Z,12.20
2022-10-01T22:24:21.726Z,12.20
2022-10-01T22:29:22.706Z,12.20
2022-10-01T22:34:24.890Z,12.20
2022-10-01T22:39:26.167Z,12.10
2022-10-01T22:44:24.849Z,12.10
2022-10-01T22:49:36.052Z,12.10
2022-10-01T22:54:46.438Z,12.00
2022-10-01T22:59:55.995Z,12.00
2022-10-01T23:05:07.091Z,12.00
2022-10-01T23:10:11.321Z,12.00
2022-10-01T23:15:23.277Z,11.90
2022-10-01T23:20:30.459Z,11.90
2022-10-01T23:25:44.878Z,11.90
2022-10-01T23:30:58.448Z,11.90
2022-10-01T23:36:06.576Z,12.00
2022-10-01T23:41:19.826Z,12.00
2022-10-01T23:46:23.348Z,11.90
2022-10-01T23:51:25.604Z,12.00
2022-10-01T23:56:46.743Z,12.00
